sensor_id;sensor_type;location;lat;lon;timestamp;pressure;altitude;pressure_sealevel;temperature;humidity
17785;BME280;9016;53.582;10.062;2024-01-25T00:00:41;101796.56;;;9.26;77.87
17785;BME280;9016;53.582;10.062;2024-01-25T00:03:09;101782.53;;;9.21;78.40
17785;BME280;9016;53.582;10.062;2024-01-25T00:05:37;101784.00;;;9.29;78.53
17785;BME280;9016;53.582;10.062;2024-01-25T00:08:05;101784.09;;;9.26;78.27
17785;BME280;9016;53.582;10.062;2024-01-25T00:10:35;101763.13;;;9.19;78.18
17785;BME280;9016;53.582;10.062;2024-01-25T00:13:03;101771.56;;;9.07;79.60
17785;BME280;9016;53.582;10.062;2024-01-25T00:15:31;101756.44;;;9.09;79.82
17785;BME280;9016;53.582;10.062;2024-01-25T00:18:00;101762.91;;;9.02;79.31
17785;BME280;9016;53.582;10.062;2024-01-25T00:20:28;101770.16;;;8.96;79.62
17785;BME280;9016;53.582;10.062;2024-01-25T00:22:56;101763.25;;;8.92;79.75
17785;BME280;9016;53.582;10.062;2024-01-25T00:25:24;101761.41;;;8.94;80.28
17785;BME280;9016;53.582;10.062;2024-01-25T00:27:54;101763.00;;;8.98;79.99
17785;BME280;9016;53.582;10.062;2024-01-25T00:30:22;101782.44;;;9.00;79.46
17785;BME280;9016;53.582;10.062;2024-01-25T00:32:50;101784.13;;;9.03;80.59
17785;BME280;9016;53.582;10.062;2024-01-25T00:35:19;101790.53;;;8.97;79.54
17785;BME280;9016;53.582;10.062;2024-01-25T00:37:48;101802.03;;;8.98;80.15
17785;BME280;9016;53.582;10.062;2024-01-25T00:40:16;101796.38;;;9.07;80.24
17785;BME280;9016;53.582;10.062;2024-01-25T00:42:46;101808.44;;;8.92;80.11
17785;BME280;9016;53.582;10.062;2024-01-25T00:45:22;101805.66;;;8.95;80.73
17785;BME280;9016;53.582;10.062;2024-01-25T00:47:51;101808.16;;;9.00;79.71
17785;BME280;9016;53.582;10.062;2024-01-25T00:50:25;101801.03;;;9.00;80.81
17785;BME280;9016;53.582;10.062;2024-01-25T00:53:01;101801.03;;;9.00;80.75
17785;BME280;9016;53.582;10.062;2024-01-25T00:55:38;101789.72;;;8.95;80.73
17785;BME280;9016;53.582;10.062;2024-01-25T00:58:09;101819.91;;;8.94;81.59
17785;BME280;9016;53.582;10.062;2024-01-25T01:00:39;101803.94;;;8.94;80.99
17785;BME280;9016;53.582;10.062;2024-01-25T01:03:11;101803.13;;;8.92;81.24
17785;BME280;9016;53.582;10.062;2024-01-25T01:05:40;101787.13;;;8.94;81.17
17785;BME280;9016;53.582;10.062;2024-01-25T01:08:10;101797.53;;;9.00;81.37
17785;BME280;9016;53.582;10.062;2024-01-25T01:10:38;101795.72;;;9.00;81.37
17785;BME280;9016;53.582;10.062;2024-01-25T01:13:06;101807.06;;;9.06;81.21
17785;BME280;9016;53.582;10.062;2024-01-25T01:15:35;101806.06;;;9.08;81.27
17785;BME280;9016;53.582;10.062;2024-01-25T01:18:04;101819.97;;;8.91;80.59
17785;BME280;9016;53.582;10.062;2024-01-25T01:20:33;101801.31;;;8.93;81.22
17785;BME280;9016;53.582;10.062;2024-01-25T01:23:01;101810.00;;;8.98;81.37
17785;BME280;9016;53.582;10.062;2024-01-25T01:25:29;101816.41;;;8.92;81.41
17785;BME280;9016;53.582;10.062;2024-01-25T01:27:57;101823.41;;;8.95;81.36
17785;BME280;9016;53.582;10.062;2024-01-25T01:30:29;101820.94;;;8.90;81.43
17785;BME280;9016;53.582;10.062;2024-01-25T01:32:58;101822.81;;;8.87;81.34
17785;BME280;9016;53.582;10.062;2024-01-25T01:35:30;101818.06;;;8.95;81.08
17785;BME280;9016;53.582;10.062;2024-01-25T01:37:58;101827.81;;;8.96;81.33
17785;BME280;9016;53.582;10.062;2024-01-25T01:40:27;101827.97;;;8.91;81.47
17785;BME280;9016;53.582;10.062;2024-01-25T01:42:59;101829.66;;;8.94;81.67
17785;BME280;9016;53.582;10.062;2024-01-25T01:45:27;101828.09;;;8.88;81.91
17785;BME280;9016;53.582;10.062;2024-01-25T01:47:56;101835.84;;;8.94;81.70
17785;BME280;9016;53.582;10.062;2024-01-25T01:50:24;101858.56;;;9.03;81.37
17785;BME280;9016;53.582;10.062;2024-01-25T01:52:54;101857.69;;;9.02;80.90
17785;BME280;9016;53.582;10.062;2024-01-25T01:55:22;101853.84;;;9.11;80.65
17785;BME280;9016;53.582;10.062;2024-01-25T01:57:51;101854.75;;;9.10;80.17
17785;BME280;9016;53.582;10.062;2024-01-25T02:00:20;101864.22;;;9.17;80.25
17785;BME280;9016;53.582;10.062;2024-01-25T02:02:49;101861.19;;;9.28;79.56
17785;BME280;9016;53.582;10.062;2024-01-25T02:05:17;101861.19;;;9.28;79.70
17785;BME280;9016;53.582;10.062;2024-01-25T02:07:45;101861.19;;;9.28;80.08
17785;BME280;9016;53.582;10.062;2024-01-25T02:10:15;101869.97;;;9.30;79.54
17785;BME280;9016;53.582;10.062;2024-01-25T02:12:43;101855.75;;;9.31;79.46
17785;BME280;9016;53.582;10.062;2024-01-25T02:15:12;101862.56;;;9.38;79.34
17785;BME280;9016;53.582;10.062;2024-01-25T02:17:40;101867.03;;;9.37;79.50
17785;BME280;9016;53.582;10.062;2024-01-25T02:20:09;101880.56;;;9.31;79.67
17785;BME280;9016;53.582;10.062;2024-01-25T02:22:39;101872.59;;;9.31;79.91
17785;BME280;9016;53.582;10.062;2024-01-25T02:25:07;101882.34;;;9.31;79.14
17785;BME280;9016;53.582;10.062;2024-01-25T02:27:35;101879.41;;;9.38;79.93
17785;BME280;9016;53.582;10.062;2024-01-25T02:30:06;101890.06;;;9.38;79.38
17785;BME280;9016;53.582;10.062;2024-01-25T02:32:34;101878.53;;;9.38;79.39
17785;BME280;9016;53.582;10.062;2024-01-25T02:35:06;101875.06;;;9.36;79.98
17785;BME280;9016;53.582;10.062;2024-01-25T02:37:34;101874.19;;;9.35;79.70
17785;BME280;9016;53.582;10.062;2024-01-25T02:40:05;101882.75;;;9.20;80.16
17785;BME280;9016;53.582;10.062;2024-01-25T02:42:33;101885.63;;;9.14;80.76
17785;BME280;9016;53.582;10.062;2024-01-25T02:45:01;101887.41;;;9.14;80.88
17785;BME280;9016;53.582;10.062;2024-01-25T02:47:29;101886.72;;;9.09;81.32
17785;BME280;9016;53.582;10.062;2024-01-25T02:49:57;101893.53;;;9.16;81.61
17785;BME280;9016;53.582;10.062;2024-01-25T02:52:26;101889.53;;;9.29;80.97
17785;BME280;9016;53.582;10.062;2024-01-25T02:54:54;101904.94;;;9.19;80.97
17785;BME280;9016;53.582;10.062;2024-01-25T02:57:23;101902.88;;;9.27;80.49
17785;BME280;9016;53.582;10.062;2024-01-25T02:59:51;101903.22;;;9.18;81.13
17785;BME280;9016;53.582;10.062;2024-01-25T03:02:19;101899.47;;;9.24;81.09
17785;BME280;9016;53.582;10.062;2024-01-25T03:04:48;101902.94;;;9.26;81.08
17785;BME280;9016;53.582;10.062;2024-01-25T03:07:16;101911.75;;;9.26;81.20
17785;BME280;9016;53.582;10.062;2024-01-25T03:09:44;101915.09;;;9.33;80.82
17785;BME280;9016;53.582;10.062;2024-01-25T03:12:12;101920.34;;;9.34;81.11
17785;BME280;9016;53.582;10.062;2024-01-25T03:14:42;101923.22;;;9.28;80.35
17785;BME280;9016;53.582;10.062;2024-01-25T03:17:10;101918.63;;;9.09;81.24
17785;BME280;9016;53.582;10.062;2024-01-25T03:19:39;101916.44;;;9.20;81.74
17785;BME280;9016;53.582;10.062;2024-01-25T03:22:07;101925.19;;;9.23;80.59
17785;BME280;9016;53.582;10.062;2024-01-25T03:24:37;101926.63;;;9.32;81.10
17785;BME280;9016;53.582;10.062;2024-01-25T03:27:05;101937.53;;;9.24;80.56
17785;BME280;9016;53.582;10.062;2024-01-25T03:29:42;101940.50;;;9.17;80.57
17785;BME280;9016;53.582;10.062;2024-01-25T03:32:10;101953.34;;;9.29;80.36
17785;BME280;9016;53.582;10.062;2024-01-25T03:34:39;101938.34;;;9.28;80.50
17785;BME280;9016;53.582;10.062;2024-01-25T03:37:07;101942.97;;;9.21;81.33
17785;BME280;9016;53.582;10.062;2024-01-25T03:39:36;101941.91;;;9.27;81.34
17785;BME280;9016;53.582;10.062;2024-01-25T03:42:05;101952.88;;;9.18;81.00
17785;BME280;9016;53.582;10.062;2024-01-25T03:44:32;101956.00;;;9.29;81.83
17785;BME280;9016;53.582;10.062;2024-01-25T03:47:02;101966.53;;;9.32;81.14
17785;BME280;9016;53.582;10.062;2024-01-25T03:49:30;101959.75;;;9.23;81.24
17785;BME280;9016;53.582;10.062;2024-01-25T03:51:59;101976.25;;;9.33;81.15
17785;BME280;9016;53.582;10.062;2024-01-25T03:54:27;101973.44;;;9.37;80.85
17785;BME280;9016;53.582;10.062;2024-01-25T03:56:55;101995.22;;;9.24;81.01
17785;BME280;9016;53.582;10.062;2024-01-25T03:59:23;101996.13;;;9.23;81.26
17785;BME280;9016;53.582;10.062;2024-01-25T04:01:51;102006.66;;;9.26;81.27
17785;BME280;9016;53.582;10.062;2024-01-25T04:04:21;102011.06;;;9.27;81.48
17785;BME280;9016;53.582;10.062;2024-01-25T04:06:49;102009.16;;;9.30;81.56
17785;BME280;9016;53.582;10.062;2024-01-25T04:09:17;102013.75;;;9.25;81.52
17785;BME280;9016;53.582;10.062;2024-01-25T04:11:45;101997.75;;;9.27;81.43
17785;BME280;9016;53.582;10.062;2024-01-25T04:14:13;102007.47;;;9.28;81.07
17785;BME280;9016;53.582;10.062;2024-01-25T04:16:42;102016.44;;;9.25;81.54
17785;BME280;9016;53.582;10.062;2024-01-25T04:19:13;102009.91;;;9.34;81.32
17785;BME280;9016;53.582;10.062;2024-01-25T04:21:42;102009.22;;;9.29;80.95
17785;BME280;9016;53.582;10.062;2024-01-25T04:24:10;102015.34;;;9.31;81.71
17785;BME280;9016;53.582;10.062;2024-01-25T04:26:39;102017.31;;;9.26;80.63
17785;BME280;9016;53.582;10.062;2024-01-25T04:29:07;102031.50;;;9.25;81.40
17785;BME280;9016;53.582;10.062;2024-01-25T04:31:35;102029.88;;;9.21;81.77
17785;BME280;9016;53.582;10.062;2024-01-25T04:34:03;102040.50;;;9.21;81.42
17785;BME280;9016;53.582;10.062;2024-01-25T04:36:31;102035.09;;;9.24;81.99
17785;BME280;9016;53.582;10.062;2024-01-25T04:39:00;102049.09;;;9.29;81.14
17785;BME280;9016;53.582;10.062;2024-01-25T04:41:29;102045.75;;;9.24;81.93
17785;BME280;9016;53.582;10.062;2024-01-25T04:43:56;102049.09;;;9.29;81.56
17785;BME280;9016;53.582;10.062;2024-01-25T04:46:24;102044.91;;;9.22;81.60
17785;BME280;9016;53.582;10.062;2024-01-25T04:48:53;102058.59;;;9.36;81.62
17785;BME280;9016;53.582;10.062;2024-01-25T04:51:22;102041.25;;;9.24;81.50
17785;BME280;9016;53.582;10.062;2024-01-25T04:53:50;102055.75;;;9.16;82.24
17785;BME280;9016;53.582;10.062;2024-01-25T04:56:19;102063.94;;;9.10;82.28
17785;BME280;9016;53.582;10.062;2024-01-25T04:58:47;102056.78;;;9.12;82.16
17785;BME280;9016;53.582;10.062;2024-01-25T05:01:15;102064.66;;;9.15;82.24
17785;BME280;9016;53.582;10.062;2024-01-25T05:03:43;102059.66;;;9.06;82.97
17785;BME280;9016;53.582;10.062;2024-01-25T05:06:12;102065.75;;;9.08;82.77
17785;BME280;9016;53.582;10.062;2024-01-25T05:08:41;102064.97;;;9.06;82.76
17785;BME280;9016;53.582;10.062;2024-01-25T05:11:13;102064.22;;;9.00;83.54
17785;BME280;9016;53.582;10.062;2024-01-25T05:13:42;102075.56;;;9.07;82.69
17785;BME280;9016;53.582;10.062;2024-01-25T05:16:11;102078.16;;;9.09;82.91
17785;BME280;9016;53.582;10.062;2024-01-25T05:18:39;102081.72;;;9.08;82.62
17785;BME280;9016;53.582;10.062;2024-01-25T05:21:08;102075.56;;;9.07;82.86
17785;BME280;9016;53.582;10.062;2024-01-25T05:23:36;102074.56;;;9.10;82.04
17785;BME280;9016;53.582;10.062;2024-01-25T05:26:05;102092.34;;;9.08;82.83
17785;BME280;9016;53.582;10.062;2024-01-25T05:28:38;102089.50;;;9.14;82.68
17785;BME280;9016;53.582;10.062;2024-01-25T05:31:07;102085.97;;;9.13;82.22
17785;BME280;9016;53.582;10.062;2024-01-25T05:33:47;102086.59;;;9.21;82.33
17785;BME280;9016;53.582;10.062;2024-01-25T05:36:23;102092.34;;;9.08;82.35
17785;BME280;9016;53.582;10.062;2024-01-25T05:38:51;102106.78;;;9.00;82.73
17785;BME280;9016;53.582;10.062;2024-01-25T05:41:19;102093.94;;;8.87;83.75
17785;BME280;9016;53.582;10.062;2024-01-25T05:43:48;102099.19;;;8.88;83.84
17785;BME280;9016;53.582;10.062;2024-01-25T05:46:17;102095.56;;;8.91;84.13
17785;BME280;9016;53.582;10.062;2024-01-25T05:48:45;102091.75;;;8.99;83.70
17785;BME280;9016;53.582;10.062;2024-01-25T05:51:14;102101.44;;;9.00;83.82
17785;BME280;9016;53.582;10.062;2024-01-25T05:53:44;102106.81;;;8.99;83.61
17785;BME280;9016;53.582;10.062;2024-01-25T05:56:14;102111.94;;;9.05;83.06
17785;BME280;9016;53.582;10.062;2024-01-25T05:58:59;102118.91;;;9.09;82.95
17785;BME280;9016;53.582;10.062;2024-01-25T06:01:28;102126.31;;;8.99;83.03
17785;BME280;9016;53.582;10.062;2024-01-25T06:04:00;102131.63;;;8.99;83.72
17785;BME280;9016;53.582;10.062;2024-01-25T06:06:28;102141.34;;;9.00;84.05
17785;BME280;9016;53.582;10.062;2024-01-25T06:08:59;102126.31;;;8.99;83.76
17785;BME280;9016;53.582;10.062;2024-01-25T06:11:38;102131.88;;;8.92;84.19
17785;BME280;9016;53.582;10.062;2024-01-25T06:14:06;102133.69;;;8.90;84.26
17785;BME280;9016;53.582;10.062;2024-01-25T06:16:37;102133.22;;;9.05;84.41
17785;BME280;9016;53.582;10.062;2024-01-25T06:22:07;102145.63;;;9.05;83.92
17785;BME280;9016;53.582;10.062;2024-01-25T06:24:35;102157.50;;;8.94;84.00
17785;BME280;9016;53.582;10.062;2024-01-25T06:27:03;102159.66;;;9.10;84.59
17785;BME280;9016;53.582;10.062;2024-01-25T06:29:31;102173.94;;;9.07;83.56
17785;BME280;9016;53.582;10.062;2024-01-25T06:32:01;102175.53;;;9.13;84.04
17785;BME280;9016;53.582;10.062;2024-01-25T06:34:36;102168.69;;;9.04;84.15
17785;BME280;9016;53.582;10.062;2024-01-25T06:37:05;102182.19;;;8.98;84.50
17785;BME280;9016;53.582;10.062;2024-01-25T06:39:33;102182.22;;;8.96;84.23
17785;BME280;9016;53.582;10.062;2024-01-25T06:42:01;102187.31;;;9.04;84.23
17785;BME280;9016;53.582;10.062;2024-01-25T06:44:31;102179.00;;;9.15;83.20
17785;BME280;9016;53.582;10.062;2024-01-25T06:47:01;102199.59;;;9.08;83.83
17785;BME280;9016;53.582;10.062;2024-01-25T06:49:29;102193.31;;;9.11;83.06
17785;BME280;9016;53.582;10.062;2024-01-25T06:51:58;102196.88;;;9.10;83.38
17785;BME280;9016;53.582;10.062;2024-01-25T06:54:26;102200.53;;;9.07;83.67
17785;BME280;9016;53.582;10.062;2024-01-25T06:56:54;102201.38;;;9.08;83.58
17785;BME280;9016;53.582;10.062;2024-01-25T06:59:23;102210.00;;;9.16;83.85
17785;BME280;9016;53.582;10.062;2024-01-25T07:01:51;102206.56;;;9.12;83.61
17785;BME280;9016;53.582;10.062;2024-01-25T07:04:22;102212.84;;;9.10;83.24
17785;BME280;9016;53.582;10.062;2024-01-25T07:06:50;102223.75;;;9.00;83.04
17785;BME280;9016;53.582;10.062;2024-01-25T07:09:19;102231.59;;;9.05;84.18
17785;BME280;9016;53.582;10.062;2024-01-25T07:11:47;102235.69;;;9.17;83.93
17785;BME280;9016;53.582;10.062;2024-01-25T07:14:15;102244.22;;;9.26;83.26
17785;BME280;9016;53.582;10.062;2024-01-25T07:16:43;102246.81;;;9.29;83.01
17785;BME280;9016;53.582;10.062;2024-01-25T07:19:11;102253.38;;;9.18;83.08
17785;BME280;9016;53.582;10.062;2024-01-25T07:21:41;102260.25;;;9.25;83.09
17785;BME280;9016;53.582;10.062;2024-01-25T07:24:12;102263.97;;;9.19;83.58
17785;BME280;9016;53.582;10.062;2024-01-25T07:26:41;102264.97;;;9.15;83.61
17785;BME280;9016;53.582;10.062;2024-01-25T07:29:09;102258.69;;;9.18;83.24
17785;BME280;9016;53.582;10.062;2024-01-25T07:31:37;102261.81;;;9.02;84.14
17785;BME280;9016;53.582;10.062;2024-01-25T07:34:05;102264.34;;;9.07;83.41
17785;BME280;9016;53.582;10.062;2024-01-25T07:36:33;102264.13;;;9.15;84.12
17785;BME280;9016;53.582;10.062;2024-01-25T07:39:03;102258.69;;;9.18;83.37
17785;BME280;9016;53.582;10.062;2024-01-25T07:41:32;102261.41;;;9.16;83.79
17785;BME280;9016;53.582;10.062;2024-01-25T07:44:01;102263.91;;;9.21;83.27
17785;BME280;9016;53.582;10.062;2024-01-25T07:46:29;102265.94;;;9.13;82.97
17785;BME280;9016;53.582;10.062;2024-01-25T07:48:58;102271.16;;;9.16;84.10
17785;BME280;9016;53.582;10.062;2024-01-25T07:51:26;102268.84;;;9.05;83.46
17785;BME280;9016;53.582;10.062;2024-01-25T07:53:55;102261.34;;;9.18;84.14
17785;BME280;9016;53.582;10.062;2024-01-25T07:56:25;102275.06;;;9.33;83.13
17785;BME280;9016;53.582;10.062;2024-01-25T07:58:53;102271.41;;;9.36;82.17
17785;BME280;9016;53.582;10.062;2024-01-25T08:01:21;102268.69;;;9.39;82.68
17785;BME280;9016;53.582;10.062;2024-01-25T08:03:49;102278.28;;;9.44;82.01
17785;BME280;9016;53.582;10.062;2024-01-25T08:06:17;102279.94;;;9.47;82.05
17785;BME280;9016;53.582;10.062;2024-01-25T08:08:45;102278.22;;;9.46;81.13
17785;BME280;9016;53.582;10.062;2024-01-25T08:11:13;102281.78;;;9.45;82.72
17785;BME280;9016;53.582;10.062;2024-01-25T08:13:46;102284.66;;;9.39;82.10
17785;BME280;9016;53.582;10.062;2024-01-25T08:16:17;102287.16;;;9.43;82.02
17785;BME280;9016;53.582;10.062;2024-01-25T08:18:46;102292.56;;;9.40;82.30
17785;BME280;9016;53.582;10.062;2024-01-25T08:21:15;102292.63;;;9.39;81.91
17785;BME280;9016;53.582;10.062;2024-01-25T08:23:43;102293.63;;;9.35;82.27
17785;BME280;9016;53.582;10.062;2024-01-25T08:26:11;102299.69;;;9.40;82.32
17785;BME280;9016;53.582;10.062;2024-01-25T08:28:40;102301.84;;;9.27;82.96
17785;BME280;9016;53.582;10.062;2024-01-25T08:31:10;102301.75;;;9.30;82.91
17785;BME280;9016;53.582;10.062;2024-01-25T08:33:39;102309.66;;;9.33;83.12
17785;BME280;9016;53.582;10.062;2024-01-25T08:36:08;102299.25;;;9.26;82.84
17785;BME280;9016;53.582;10.062;2024-01-25T08:38:36;102299.47;;;9.18;82.87
17785;BME280;9016;53.582;10.062;2024-01-25T08:41:04;102297.59;;;9.22;83.58
17785;BME280;9016;53.582;10.062;2024-01-25T08:43:32;102302.41;;;9.38;83.39
17785;BME280;9016;53.582;10.062;2024-01-25T08:46:01;102303.34;;;9.36;82.92
17785;BME280;9016;53.582;10.062;2024-01-25T08:48:31;102309.59;;;9.35;83.04
17785;BME280;9016;53.582;10.062;2024-01-25T08:50:59;102308.59;;;9.39;83.21
17785;BME280;9016;53.582;10.062;2024-01-25T08:53:28;102307.19;;;9.55;82.04
17785;BME280;9016;53.582;10.062;2024-01-25T08:55:56;102309.94;;;9.52;81.93
17785;BME280;9016;53.582;10.062;2024-01-25T08:58:24;102313.53;;;9.51;81.57
17785;BME280;9016;53.582;10.062;2024-01-25T09:00:52;102309.03;;;9.53;81.90
17785;BME280;9016;53.582;10.062;2024-01-25T09:03:20;102308.63;;;9.65;81.71
17785;BME280;9016;53.582;10.062;2024-01-25T09:05:50;102320.34;;;9.59;81.07
17785;BME280;9016;53.582;10.062;2024-01-25T09:08:19;102319.69;;;9.53;81.66
17785;BME280;9016;53.582;10.062;2024-01-25T09:10:47;102324.06;;;9.54;81.80
17785;BME280;9016;53.582;10.062;2024-01-25T09:13:16;102327.38;;;9.62;82.02
17785;BME280;9016;53.582;10.062;2024-01-25T09:15:44;102330.63;;;9.71;81.15
17785;BME280;9016;53.582;10.062;2024-01-25T09:18:13;102333.06;;;9.79;81.23
17785;BME280;9016;53.582;10.062;2024-01-25T09:20:42;102334.34;;;9.66;80.76
17785;BME280;9016;53.582;10.062;2024-01-25T09:23:16;102340.84;;;9.56;81.44
17785;BME280;9016;53.582;10.062;2024-01-25T09:25:45;102347.38;;;9.75;81.49
17785;BME280;9016;53.582;10.062;2024-01-25T09:28:13;102342.00;;;9.76;81.60
17785;BME280;9016;53.582;10.062;2024-01-25T09:30:42;102346.06;;;9.88;81.07
17785;BME280;9016;53.582;10.062;2024-01-25T09:33:10;102360.38;;;9.84;81.43
17785;BME280;9016;53.582;10.062;2024-01-25T09:35:38;102357.72;;;9.84;80.51
17785;BME280;9016;53.582;10.062;2024-01-25T09:38:07;102363.44;;;9.72;81.34
17785;BME280;9016;53.582;10.062;2024-01-25T09:40:36;102359.09;;;9.69;82.02
17785;BME280;9016;53.582;10.062;2024-01-25T09:43:04;102368.94;;;9.66;81.88
17785;BME280;9016;53.582;10.062;2024-01-25T09:45:33;102364.59;;;9.63;81.53
17785;BME280;9016;53.582;10.062;2024-01-25T09:48:02;102380.59;;;9.62;82.55
17785;BME280;9016;53.582;10.062;2024-01-25T09:50:31;102384.75;;;9.70;82.26
17785;BME280;9016;53.582;10.062;2024-01-25T09:53:02;102388.91;;;9.80;81.63
17785;BME280;9016;53.582;10.062;2024-01-25T09:55:32;102384.75;;;9.70;82.12
17785;BME280;9016;53.582;10.062;2024-01-25T09:58:06;102389.56;;;9.87;81.11
17785;BME280;9016;53.582;10.062;2024-01-25T10:00:35;102397.19;;;9.99;81.69
17785;BME280;9016;53.582;10.062;2024-01-25T10:03:04;102407.06;;;9.95;80.86
17785;BME280;9016;53.582;10.062;2024-01-25T10:05:32;102401.94;;;9.89;79.78
17785;BME280;9016;53.582;10.062;2024-01-25T10:08:01;102396.31;;;9.98;79.73
17785;BME280;9016;53.582;10.062;2024-01-25T10:10:32;102398.88;;;10.01;79.99
17785;BME280;9016;53.582;10.062;2024-01-25T10:13:00;102384.38;;;10.12;79.33
17785;BME280;9016;53.582;10.062;2024-01-25T10:15:30;102401.31;;;10.09;79.39
17785;BME280;9016;53.582;10.062;2024-01-25T10:17:58;102406.78;;;10.05;78.89
17785;BME280;9016;53.582;10.062;2024-01-25T10:20:46;102405.69;;;10.12;79.01
17785;BME280;9016;53.582;10.062;2024-01-25T10:23:15;102412.88;;;10.08;79.06
17785;BME280;9016;53.582;10.062;2024-01-25T10:25:43;102413.63;;;10.13;79.76
17785;BME280;9016;53.582;10.062;2024-01-25T10:28:12;102409.31;;;10.09;78.57
17785;BME280;9016;53.582;10.062;2024-01-25T10:30:42;102421.56;;;10.15;79.09
17785;BME280;9016;53.582;10.062;2024-01-25T10:33:10;102418.22;;;10.08;79.20
17785;BME280;9016;53.582;10.062;2024-01-25T10:35:40;102423.38;;;10.14;78.86
17785;BME280;9016;53.582;10.062;2024-01-25T10:38:13;102428.03;;;10.06;78.98
17785;BME280;9016;53.582;10.062;2024-01-25T10:40:42;102424.72;;;9.99;78.71
17785;BME280;9016;53.582;10.062;2024-01-25T10:43:14;102425.13;;;10.15;79.72
17785;BME280;9016;53.582;10.062;2024-01-25T10:45:45;102422.31;;;10.20;78.85
17785;BME280;9016;53.582;10.062;2024-01-25T10:48:14;102412.13;;;10.32;78.43
17785;BME280;9016;53.582;10.062;2024-01-25T10:50:42;102408.09;;;10.47;78.02
17785;BME280;9016;53.582;10.062;2024-01-25T10:53:12;102407.22;;;10.46;78.32
17785;BME280;9016;53.582;10.062;2024-01-25T10:55:40;102420.75;;;10.40;78.10
17785;BME280;9016;53.582;10.062;2024-01-25T10:58:12;102419.34;;;10.29;77.14
17785;BME280;9016;53.582;10.062;2024-01-25T11:00:40;102422.31;;;10.20;78.55
17785;BME280;9016;53.582;10.062;2024-01-25T11:03:10;102431.25;;;10.17;78.51
17785;BME280;9016;53.582;10.062;2024-01-25T11:05:38;102427.66;;;10.20;79.10
17785;BME280;9016;53.582;10.062;2024-01-25T11:08:17;102417.72;;;10.25;79.06
17785;BME280;9016;53.582;10.062;2024-01-25T11:10:50;102425.06;;;10.17;78.46
17785;BME280;9016;53.582;10.062;2024-01-25T11:13:23;102421.19;;;10.27;78.88
17785;BME280;9016;53.582;10.062;2024-01-25T11:15:52;102425.13;;;10.15;79.21
17785;BME280;9016;53.582;10.062;2024-01-25T11:18:25;102417.84;;;10.20;78.63
17785;BME280;9016;53.582;10.062;2024-01-25T11:20:53;102421.31;;;10.22;78.94
17785;BME280;9016;53.582;10.062;2024-01-25T11:23:31;102425.06;;;10.17;78.81
17785;BME280;9016;53.582;10.062;2024-01-25T11:25:59;102426.88;;;10.16;79.58
17785;BME280;9016;53.582;10.062;2024-01-25T11:28:27;102429.25;;;10.24;78.80
17785;BME280;9016;53.582;10.062;2024-01-25T11:30:56;102431.59;;;10.34;79.20
17785;BME280;9016;53.582;10.062;2024-01-25T11:33:25;102427.72;;;10.44;79.42
17785;BME280;9016;53.582;10.062;2024-01-25T11:35:54;102434.63;;;10.50;78.63
17785;BME280;9016;53.582;10.062;2024-01-25T11:38:22;102432.91;;;10.49;78.03
17785;BME280;9016;53.582;10.062;2024-01-25T11:40:50;102423.81;;;10.28;78.23
17785;BME280;9016;53.582;10.062;2024-01-25T11:43:18;102426.84;;;10.44;78.23
17785;BME280;9016;53.582;10.062;2024-01-25T11:45:46;102428.59;;;10.45;78.01
17785;BME280;9016;53.582;10.062;2024-01-25T11:48:15;102417.69;;;10.52;77.59
17785;BME280;9016;53.582;10.062;2024-01-25T11:50:44;102424.44;;;10.36;77.95
17785;BME280;9016;53.582;10.062;2024-01-25T11:53:13;102419.16;;;10.35;78.53
17785;BME280;9016;53.582;10.062;2024-01-25T11:55:41;102427.00;;;10.39;78.00
17785;BME280;9016;53.582;10.062;2024-01-25T11:58:09;102413.53;;;10.44;78.85
17785;BME280;9016;53.582;10.062;2024-01-25T12:00:37;102423.19;;;10.46;78.40
17785;BME280;9016;53.582;10.062;2024-01-25T12:03:06;102427.75;;;10.43;77.56
17785;BME280;9016;53.582;10.062;2024-01-25T12:05:34;102426.88;;;10.42;77.71
17785;BME280;9016;53.582;10.062;2024-01-25T12:08:09;102424.72;;;10.53;78.22
17785;BME280;9016;53.582;10.062;2024-01-25T12:10:37;102417.47;;;10.58;77.10
17785;BME280;9016;53.582;10.062;2024-01-25T12:13:07;102407.25;;;10.45;76.43
17785;BME280;9016;53.582;10.062;2024-01-25T12:15:35;102416.78;;;10.52;76.95
17785;BME280;9016;53.582;10.062;2024-01-25T12:18:05;102409.03;;;10.46;76.57
17785;BME280;9016;53.582;10.062;2024-01-25T12:20:35;102412.34;;;10.52;76.33
17785;BME280;9016;53.582;10.062;2024-01-25T12:23:04;102414.75;;;10.34;75.80
17785;BME280;9016;53.582;10.062;2024-01-25T12:25:39;102416.50;;;10.35;76.88
17785;BME280;9016;53.582;10.062;2024-01-25T12:28:10;102425.25;;;10.38;76.42
17785;BME280;9016;53.582;10.062;2024-01-25T12:30:39;102421.66;;;10.39;75.41
17785;BME280;9016;53.582;10.062;2024-01-25T12:33:07;102427.50;;;10.50;76.21
17785;BME280;9016;53.582;10.062;2024-01-25T12:35:35;102434.03;;;10.42;76.28
17785;BME280;9016;53.582;10.062;2024-01-25T12:38:07;102429.34;;;10.48;75.72
17785;BME280;9016;53.582;10.062;2024-01-25T12:40:35;102429.34;;;10.48;74.74
17785;BME280;9016;53.582;10.062;2024-01-25T12:43:05;102431.81;;;10.54;74.91
17785;BME280;9016;53.582;10.062;2024-01-25T12:45:35;102437.28;;;10.51;75.62
17785;BME280;9016;53.582;10.062;2024-01-25T12:48:04;102430.63;;;10.37;74.88
17785;BME280;9016;53.582;10.062;2024-01-25T12:50:33;102438.53;;;10.40;75.58
17785;BME280;9016;53.582;10.062;2024-01-25T12:53:02;102427.88;;;10.40;75.06
17785;BME280;9016;53.582;10.062;2024-01-25T12:55:30;102437.41;;;10.47;74.87
17785;BME280;9016;53.582;10.062;2024-01-25T12:57:59;102437.41;;;10.47;74.78
17785;BME280;9016;53.582;10.062;2024-01-25T13:00:29;102428.22;;;10.55;75.03
17785;BME280;9016;53.582;10.062;2024-01-25T13:02:57;102434.50;;;10.54;74.06
17785;BME280;9016;53.582;10.062;2024-01-25T13:05:25;102430.63;;;10.37;74.67
17785;BME280;9016;53.582;10.062;2024-01-25T13:07:53;102430.59;;;10.38;74.84
17785;BME280;9016;53.582;10.062;2024-01-25T13:10:22;102435.69;;;10.46;74.58